Time;durP1;ratioP1;P1;durP2;ratioP2;P2;SDS_P1;SDS_P2;PMS_P1;PMS_P2;Temp;Humidity;BMP_temperature;BMP_pressure;BME280_temperature;BME280_humidity;BME280_pressure;Samples;Min_cycle;Max_cycle;Signal;HPM_P1;HPM_P2
2023/08/25 00:01:54;;;;;;;12.18;6.13;;;;;;;;;;5109790;28;20043;-65
2023/08/25 00:04:21;;;;;;;11.75;5.43;;;;;;;;;;5110570;28;20051;-65
2023/08/25 00:06:47;;;;;;;6.55;4.35;;;;;;;;;;5109528;28;20036;-65
2023/08/25 00:09:14;;;;;;;6.55;4.38;;;;;;;;;;5089230;28;20492;-64
2023/08/25 00:11:40;;;;;;;9.32;5.25;;;;;;;;;;5093938;28;20568;-66
2023/08/25 00:14:07;;;;;;;8.35;4.88;;;;;;;;;;5109894;28;20495;-65
2023/08/25 00:16:33;;;;;;;8.43;4.22;;;;;;;;;;5109057;28;20067;-63
2023/08/25 00:19:00;;;;;;;5.75;4.15;;;;;;;;;;5109695;28;20496;-67
2023/08/25 00:21:26;;;;;;;5.30;3.65;;;;;;;;;;5108966;28;20459;-64
2023/08/25 00:23:53;;;;;;;6.50;4.60;;;;;;;;;;5109630;28;20098;-65
2023/08/25 00:26:19;;;;;;;10.18;4.35;;;;;;;;;;5109547;28;20090;-66
2023/08/25 00:28:46;;;;;;;10.23;4.60;;;;;;;;;;5109617;28;20463;-65
2023/08/25 00:31:12;;;;;;;6.55;4.47;;;;;;;;;;5108741;28;20150;-65
2023/08/25 00:33:47;;;;;;;5.75;4.93;;;;;;;;;;5109337;28;20063;-65
2023/08/25 00:36:13;;;;;;;6.95;4.88;;;;;;;;;;5109205;28;20131;-65
2023/08/25 00:38:39;;;;;;;16.20;6.38;;;;;;;;;;5108259;28;20066;-67
2023/08/25 00:41:06;;;;;;;9.07;4.82;;;;;;;;;;5109041;28;20083;-66
2023/08/25 00:43:33;;;;;;;5.65;4.55;;;;;;;;;;5109380;28;20519;-64
2023/08/25 00:46:00;;;;;;;6.88;5.22;;;;;;;;;;5109897;28;20478;-66
2023/08/25 00:48:27;;;;;;;9.00;4.75;;;;;;;;;;5108855;28;20460;-65
2023/08/25 00:50:54;;;;;;;9.02;5.35;;;;;;;;;;5109624;28;20043;-65
2023/08/25 00:53:22;;;;;;;7.00;4.85;;;;;;;;;;5108614;28;20134;-66
2023/08/25 00:55:49;;;;;;;9.00;5.43;;;;;;;;;;5109438;28;20400;-66
2023/08/25 00:58:16;;;;;;;8.65;5.45;;;;;;;;;;5107259;28;20093;-65
2023/08/25 01:00:43;;;;;;;7.80;5.20;;;;;;;;;;5109131;28;20127;-65
2023/08/25 01:03:10;;;;;;;10.52;5.28;;;;;;;;;;5108681;28;20452;-66
2023/08/25 01:05:39;;;;;;;12.93;5.47;;;;;;;;;;5109099;28;20058;-65
2023/08/25 01:08:05;;;;;;;6.07;5.47;;;;;;;;;;5108643;28;20059;-64
2023/08/25 01:10:44;;;;;;;8.27;4.95;;;;;;;;;;5109156;28;20043;-64
2023/08/25 01:13:16;;;;;;;7.80;4.78;;;;;;;;;;5108869;28;20071;-64
2023/08/25 01:15:43;;;;;;;9.75;4.80;;;;;;;;;;5109058;28;20040;-65
2023/08/25 01:18:12;;;;;;;6.85;5.35;;;;;;;;;;5109053;28;20083;-64
2023/08/25 01:20:39;;;;;;;5.93;4.68;;;;;;;;;;5108605;28;20040;-65
2023/08/25 01:23:16;;;;;;;7.57;4.63;;;;;;;;;;5108658;28;20108;-65
2023/08/25 01:25:44;;;;;;;9.90;5.22;;;;;;;;;;5108557;28;20147;-64
2023/08/25 01:28:10;;;;;;;5.43;4.60;;;;;;;;;;5108610;28;20043;-64
2023/08/25 01:30:37;;;;;;;7.40;4.90;;;;;;;;;;5108710;28;20499;-64
2023/08/25 01:33:04;;;;;;;9.80;5.57;;;;;;;;;;5108164;28;20136;-65
2023/08/25 01:35:34;;;;;;;9.32;4.78;;;;;;;;;;5109168;28;20496;-65
2023/08/25 01:38:06;;;;;;;7.03;4.65;;;;;;;;;;5107293;28;20082;-64
2023/08/25 01:40:36;;;;;;;8.48;4.95;;;;;;;;;;5111651;28;20488;-64
2023/08/25 01:43:04;;;;;;;7.63;5.03;;;;;;;;;;5111943;28;20079;-64
2023/08/25 01:45:31;;;;;;;9.02;4.43;;;;;;;;;;5113051;28;20167;-64
2023/08/25 01:47:58;;;;;;;6.82;4.65;;;;;;;;;;5111726;28;20079;-65
2023/08/25 01:50:24;;;;;;;6.00;4.65;;;;;;;;;;5112662;28;20074;-64
2023/08/25 01:52:51;;;;;;;8.70;4.55;;;;;;;;;;5110426;28;20077;-64
2023/08/25 01:55:17;;;;;;;10.70;5.47;;;;;;;;;;5112682;28;20484;-65
2023/08/25 01:57:44;;;;;;;6.07;3.85;;;;;;;;;;5110481;28;20054;-64
2023/08/25 02:00:11;;;;;;;9.38;4.55;;;;;;;;;;5112582;28;20043;-64
2023/08/25 02:02:37;;;;;;;8.82;4.45;;;;;;;;;;5110450;28;20128;-64
2023/08/25 02:05:04;;;;;;;10.07;4.90;;;;;;;;;;5111330;28;20056;-64
2023/08/25 02:07:31;;;;;;;6.72;4.55;;;;;;;;;;5111548;28;20488;-65
2023/08/25 02:09:57;;;;;;;6.72;4.75;;;;;;;;;;5112044;28;20093;-64
2023/08/25 02:12:23;;;;;;;7.13;5.20;;;;;;;;;;5111643;28;20136;-63
2023/08/25 02:14:50;;;;;;;12.35;5.82;;;;;;;;;;5111593;28;20040;-63
2023/08/25 02:17:16;;;;;;;11.98;5.05;;;;;;;;;;5111520;28;20134;-65
2023/08/25 02:19:43;;;;;;;9.95;4.78;;;;;;;;;;5111798;28;20039;-65
2023/08/25 02:22:09;;;;;;;7.07;4.93;;;;;;;;;;5111396;28;20083;-65
2023/08/25 02:24:36;;;;;;;7.80;5.15;;;;;;;;;;5111567;28;20135;-64
2023/08/25 02:27:02;;;;;;;8.18;4.88;;;;;;;;;;5111437;28;20464;-65
2023/08/25 02:29:29;;;;;;;8.10;5.15;;;;;;;;;;5111374;28;20044;-65
2023/08/25 02:31:55;;;;;;;10.40;5.32;;;;;;;;;;5109292;28;20325;-64
2023/08/25 02:34:22;;;;;;;6.70;4.80;;;;;;;;;;5111591;28;20079;-65
2023/08/25 02:36:49;;;;;;;7.70;5.22;;;;;;;;;;5110966;28;20043;-65
2023/08/25 02:39:15;;;;;;;8.20;5.38;;;;;;;;;;5111564;28;20083;-64
2023/08/25 02:41:41;;;;;;;7.25;4.97;;;;;;;;;;5110034;28;20043;-66
2023/08/25 02:44:08;;;;;;;8.98;5.45;;;;;;;;;;5110197;28;20582;-64
2023/08/25 02:46:34;;;;;;;9.85;5.38;;;;;;;;;;5110809;28;20079;-65
2023/08/25 02:49:01;;;;;;;9.15;5.03;;;;;;;;;;5111287;28;20127;-66
2023/08/25 02:51:27;;;;;;;12.07;5.70;;;;;;;;;;5110826;28;20123;-65
2023/08/25 02:53:53;;;;;;;10.48;5.80;;;;;;;;;;5111542;28;20547;-67
2023/08/25 02:56:20;;;;;;;6.90;4.75;;;;;;;;;;5110280;27;20507;-67
2023/08/25 02:58:46;;;;;;;10.75;5.63;;;;;;;;;;5111301;28;20082;-69
2023/08/25 03:01:13;;;;;;;6.90;5.13;;;;;;;;;;5110716;28;20136;-66
2023/08/25 03:03:39;;;;;;;14.15;5.75;;;;;;;;;;5111180;28;20100;-65
2023/08/25 03:06:06;;;;;;;11.55;5.38;;;;;;;;;;5110258;28;20087;-66
2023/08/25 03:08:32;;;;;;;7.40;5.38;;;;;;;;;;5111088;28;20396;-68
2023/08/25 03:11:03;;;;;;;8.65;5.13;;;;;;;;;;5110819;28;20526;-67
2023/08/25 03:13:30;;;;;;;14.27;6.03;;;;;;;;;;5090756;28;20298;-67
2023/08/25 03:16:01;;;;;;;9.48;5.82;;;;;;;;;;5091810;28;20404;-67
2023/08/25 03:18:28;;;;;;;12.10;6.43;;;;;;;;;;5094574;28;20399;-67
2023/08/25 03:20:55;;;;;;;8.77;6.13;;;;;;;;;;5110745;28;20082;-66
2023/08/25 03:23:21;;;;;;;7.65;5.75;;;;;;;;;;5108999;28;20089;-66
2023/08/25 03:25:48;;;;;;;7.82;4.80;;;;;;;;;;5110870;28;20430;-66
2023/08/25 03:28:14;;;;;;;9.35;5.95;;;;;;;;;;5109898;28;20127;-66
2023/08/25 03:30:41;;;;;;;7.55;5.53;;;;;;;;;;5110434;28;20044;-66
2023/08/25 03:33:07;;;;;;;11.80;6.35;;;;;;;;;;5109903;28;20072;-67
2023/08/25 03:35:37;;;;;;;8.90;6.13;;;;;;;;;;5110116;28;20055;-66
2023/08/25 03:38:05;;;;;;;8.68;6.68;;;;;;;;;;5110156;27;20571;-66
2023/08/25 03:40:31;;;;;;;7.28;5.63;;;;;;;;;;5108952;28;20445;-66
2023/08/25 03:42:58;;;;;;;6.90;6.15;;;;;;;;;;5109992;28;20075;-66
2023/08/25 03:45:24;;;;;;;9.18;6.00;;;;;;;;;;5110232;28;20079;-66
2023/08/25 03:47:52;;;;;;;9.00;5.40;;;;;;;;;;5108885;28;20522;-66
2023/08/25 03:50:20;;;;;;;10.20;5.90;;;;;;;;;;5109092;28;20392;-67
2023/08/25 03:52:49;;;;;;;8.63;6.18;;;;;;;;;;5104108;28;20063;-68
2023/08/25 03:55:15;;;;;;;9.38;6.40;;;;;;;;;;5109584;28;20140;-66
2023/08/25 03:57:42;;;;;;;7.63;6.40;;;;;;;;;;5109497;28;20134;-66
2023/08/25 04:00:08;;;;;;;14.10;6.00;;;;;;;;;;5109621;28;20126;-66
2023/08/25 04:02:36;;;;;;;12.13;6.75;;;;;;;;;;5109635;28;20127;-66
2023/08/25 04:05:03;;;;;;;10.90;6.57;;;;;;;;;;5109534;28;20053;-66
2023/08/25 04:07:29;;;;;;;7.82;6.25;;;;;;;;;;5109542;28;20075;-66
2023/08/25 04:09:56;;;;;;;10.55;6.30;;;;;;;;;;5109648;28;20108;-66
2023/08/25 04:12:22;;;;;;;5.97;5.22;;;;;;;;;;5109056;28;20399;-66
2023/08/25 04:14:49;;;;;;;9.05;5.40;;;;;;;;;;5109601;28;20044;-68
2023/08/25 04:17:15;;;;;;;10.30;6.45;;;;;;;;;;5108393;28;20678;-66
2023/08/25 04:19:41;;;;;;;9.02;6.32;;;;;;;;;;5109401;28;20134;-66
2023/08/25 04:22:08;;;;;;;13.25;6.65;;;;;;;;;;5108650;28;20416;-66
2023/08/25 04:24:34;;;;;;;7.93;6.28;;;;;;;;;;5109560;28;20075;-66
2023/08/25 04:27:01;;;;;;;10.52;5.97;;;;;;;;;;5108224;28;20048;-66
2023/08/25 04:29:27;;;;;;;13.55;6.80;;;;;;;;;;5109335;28;20472;-66
2023/08/25 04:31:53;;;;;;;9.55;6.68;;;;;;;;;;5108166;28;20243;-66
2023/08/25 04:34:20;;;;;;;8.88;6.82;;;;;;;;;;5108748;28;20100;-66
2023/08/25 04:36:46;;;;;;;14.30;7.18;;;;;;;;;;5108461;28;20547;-66
2023/08/25 04:39:16;;;;;;;9.32;6.45;;;;;;;;;;5108361;28;20086;-66
2023/08/25 04:41:42;;;;;;;9.98;6.93;;;;;;;;;;5108730;28;20393;-66
2023/08/25 04:44:08;;;;;;;9.88;6.80;;;;;;;;;;5108370;28;20094;-66
2023/08/25 04:46:35;;;;;;;10.05;7.45;;;;;;;;;;5108913;28;20147;-66
2023/08/25 04:49:02;;;;;;;8.70;7.15;;;;;;;;;;5106994;28;20202;-66
2023/08/25 04:51:29;;;;;;;9.25;6.78;;;;;;;;;;5109071;28;20135;-66
2023/08/25 04:53:55;;;;;;;9.65;7.40;;;;;;;;;;5108363;28;20056;-66
2023/08/25 04:56:21;;;;;;;9.15;7.32;;;;;;;;;;5108583;28;20699;-66
2023/08/25 04:58:48;;;;;;;8.23;6.63;;;;;;;;;;5108453;28;20047;-66
2023/08/25 05:01:15;;;;;;;11.30;7.28;;;;;;;;;;5107959;28;20083;-66
2023/08/25 05:03:44;;;;;;;11.52;7.15;;;;;;;;;;5107795;28;20048;-66
2023/08/25 05:06:11;;;;;;;8.77;7.30;;;;;;;;;;5108340;28;20061;-66
2023/08/25 05:08:38;;;;;;;10.82;7.35;;;;;;;;;;5108506;28;20108;-66
2023/08/25 05:11:04;;;;;;;14.15;8.25;;;;;;;;;;5108034;28;20205;-66
2023/08/25 05:13:31;;;;;;;9.48;7.07;;;;;;;;;;5108668;28;20105;-66
2023/08/25 05:15:57;;;;;;;11.30;7.43;;;;;;;;;;5110489;28;20471;-66
2023/08/25 05:18:24;;;;;;;11.32;7.53;;;;;;;;;;5110977;28;20138;-66
2023/08/25 05:20:57;;;;;;;15.50;8.43;;;;;;;;;;5112329;28;20448;-66
2023/08/25 05:23:23;;;;;;;9.85;6.72;;;;;;;;;;5112370;28;20079;-66
2023/08/25 05:25:50;;;;;;;12.80;8.80;;;;;;;;;;5111511;28;20097;-66
2023/08/25 05:28:16;;;;;;;15.90;8.25;;;;;;;;;;5111539;28;20538;-66
2023/08/25 05:30:46;;;;;;;11.77;7.70;;;;;;;;;;5112515;28;20048;-67
2023/08/25 05:33:12;;;;;;;17.87;8.53;;;;;;;;;;5111701;28;20148;-66
2023/08/25 05:35:39;;;;;;;11.02;8.57;;;;;;;;;;5111979;28;20051;-68
2023/08/25 05:38:06;;;;;;;18.15;8.68;;;;;;;;;;5111816;28;20488;-66
2023/08/25 05:40:33;;;;;;;14.68;8.35;;;;;;;;;;5112439;28;20203;-66
2023/08/25 05:42:59;;;;;;;15.80;9.35;;;;;;;;;;5110098;28;20043;-66
2023/08/25 05:45:25;;;;;;;13.80;9.40;;;;;;;;;;5112471;28;20052;-65
2023/08/25 05:47:52;;;;;;;14.77;9.07;;;;;;;;;;5111095;28;20470;-68
2023/08/25 05:50:19;;;;;;;13.10;8.25;;;;;;;;;;5112062;28;20094;-68
2023/08/25 05:52:47;;;;;;;10.68;8.50;;;;;;;;;;5111274;28;20168;-66
2023/08/25 05:55:13;;;;;;;13.68;7.30;;;;;;;;;;5112003;28;20059;-65
2023/08/25 05:57:40;;;;;;;19.13;9.15;;;;;;;;;;5110868;28;20135;-65
2023/08/25 06:00:07;;;;;;;12.75;9.02;;;;;;;;;;5112085;28;20044;-66
2023/08/25 06:02:33;;;;;;;11.05;8.55;;;;;;;;;;5111279;28;20146;-66
2023/08/25 06:05:00;;;;;;;13.75;8.00;;;;;;;;;;5111629;28;20055;-65
2023/08/25 06:07:26;;;;;;;12.45;8.18;;;;;;;;;;5109526;28;20098;-65
2023/08/25 06:09:52;;;;;;;10.00;7.60;;;;;;;;;;5111918;28;20147;-66
2023/08/25 06:12:19;;;;;;;10.38;8.02;;;;;;;;;;5110906;28;20506;-66
2023/08/25 06:14:45;;;;;;;8.93;7.55;;;;;;;;;;5111888;28;20393;-68
2023/08/25 06:17:12;;;;;;;13.88;7.60;;;;;;;;;;5111251;28;20052;-68
2023/08/25 06:19:38;;;;;;;11.38;8.73;;;;;;;;;;5111621;28;20054;-65
2023/08/25 06:22:05;;;;;;;12.80;7.60;;;;;;;;;;5110984;28;20682;-66
2023/08/25 06:24:31;;;;;;;9.05;7.05;;;;;;;;;;5111139;28;20115;-66
2023/08/25 06:26:58;;;;;;;11.73;8.75;;;;;;;;;;5110508;28;20146;-66
2023/08/25 06:29:24;;;;;;;15.63;7.57;;;;;;;;;;5109726;28;20143;-68
2023/08/25 06:31:51;;;;;;;9.75;7.20;;;;;;;;;;5110596;28;20122;-66
2023/08/25 06:34:17;;;;;;;8.82;7.93;;;;;;;;;;5111373;28;20070;-65
2023/08/25 06:36:43;;;;;;;13.48;7.43;;;;;;;;;;5111145;28;20467;-65
2023/08/25 06:39:11;;;;;;;7.75;6.95;;;;;;;;;;5110631;28;20126;-66
2023/08/25 06:41:37;;;;;;;21.98;7.65;;;;;;;;;;5110837;28;20052;-65
2023/08/25 06:44:04;;;;;;;8.00;6.65;;;;;;;;;;5109436;28;20563;-65
2023/08/25 06:46:30;;;;;;;11.13;7.32;;;;;;;;;;5110530;28;20134;-65
2023/08/25 06:48:56;;;;;;;9.30;6.65;;;;;;;;;;5110158;28;20416;-68
2023/08/25 06:51:24;;;;;;;8.85;7.45;;;;;;;;;;5110327;28;20128;-65
2023/08/25 06:53:50;;;;;;;9.40;7.47;;;;;;;;;;5089272;28;20050;-65
2023/08/25 06:56:16;;;;;;;9.00;6.90;;;;;;;;;;5091509;28;20145;-66
2023/08/25 06:58:43;;;;;;;12.55;7.22;;;;;;;;;;5099802;28;20040;-66
2023/08/25 07:01:10;;;;;;;12.80;7.25;;;;;;;;;;5093372;28;20575;-66
2023/08/25 07:03:37;;;;;;;8.38;7.50;;;;;;;;;;5110834;28;20043;-66
2023/08/25 07:06:05;;;;;;;8.80;7.45;;;;;;;;;;5109726;28;20040;-66
2023/08/25 07:08:32;;;;;;;13.02;8.35;;;;;;;;;;5110056;28;20048;-66
2023/08/25 07:10:58;;;;;;;11.15;7.68;;;;;;;;;;5108412;28;20601;-66
2023/08/25 07:13:25;;;;;;;10.15;7.82;;;;;;;;;;5109370;28;20460;-66
2023/08/25 07:15:51;;;;;;;10.75;8.23;;;;;;;;;;5109546;28;20134;-67
2023/08/25 07:18:18;;;;;;;10.90;6.85;;;;;;;;;;5109624;28;20050;-65
2023/08/25 07:20:44;;;;;;;9.90;7.93;;;;;;;;;;5110474;28;20039;-66
2023/08/25 07:23:11;;;;;;;8.98;7.97;;;;;;;;;;5109706;28;20052;-66
2023/08/25 07:25:43;;;;;;;13.40;6.97;;;;;;;;;;5109147;28;20048;-66
2023/08/25 07:28:10;;;;;;;10.70;7.60;;;;;;;;;;5108320;28;20071;-65
2023/08/25 07:30:37;;;;;;;8.75;6.45;;;;;;;;;;5110403;28;20112;-68
2023/08/25 07:33:05;;;;;;;11.73;8.13;;;;;;;;;;5109093;28;20130;-68
2023/08/25 07:35:33;;;;;;;10.38;7.80;;;;;;;;;;5110231;28;20047;-67
2023/08/25 07:37:59;;;;;;;13.23;7.60;;;;;;;;;;5108362;28;20036;-68
2023/08/25 07:40:26;;;;;;;14.63;7.43;;;;;;;;;;5110197;28;20044;-65
2023/08/25 07:42:57;;;;;;;10.73;7.57;;;;;;;;;;5108737;28;20126;-65
2023/08/25 07:45:24;;;;;;;14.18;7.75;;;;;;;;;;5109909;28;20142;-65
2023/08/25 07:47:50;;;;;;;10.38;8.40;;;;;;;;;;5109045;28;20055;-65
2023/08/25 07:50:17;;;;;;;9.27;7.00;;;;;;;;;;5109377;28;20402;-65
2023/08/25 07:52:44;;;;;;;11.23;7.45;;;;;;;;;;5107905;28;20043;-66
2023/08/25 07:55:12;;;;;;;11.43;7.35;;;;;;;;;;5109003;28;20519;-67
2023/08/25 07:57:38;;;;;;;17.45;7.10;;;;;;;;;;5109143;28;20065;-65
2023/08/25 08:00:06;;;;;;;15.05;8.18;;;;;;;;;;5109240;28;20067;-65
2023/08/25 08:02:33;;;;;;;16.15;7.30;;;;;;;;;;5109224;28;20048;-67
2023/08/25 08:04:59;;;;;;;12.93;7.28;;;;;;;;;;5109084;28;20036;-68
2023/08/25 08:07:26;;;;;;;12.98;7.13;;;;;;;;;;5109491;28;20123;-68
2023/08/25 08:09:52;;;;;;;12.27;7.57;;;;;;;;;;5108730;28;20082;-67
2023/08/25 08:12:18;;;;;;;9.68;6.45;;;;;;;;;;5108874;28;20466;-67
2023/08/25 08:14:45;;;;;;;12.20;7.45;;;;;;;;;;5108478;28;20390;-67
2023/08/25 08:17:12;;;;;;;13.57;7.05;;;;;;;;;;5108527;28;20086;-67
2023/08/25 08:19:38;;;;;;;12.07;6.65;;;;;;;;;;5108454;28;20460;-67
2023/08/25 08:22:05;;;;;;;10.35;6.75;;;;;;;;;;5107404;28;20048;-67
2023/08/25 08:24:33;;;;;;;13.57;6.05;;;;;;;;;;5109047;28;20046;-67
2023/08/25 08:27:18;;;;;;;11.13;6.28;;;;;;;;;;5106959;28;20051;-67
2023/08/25 08:29:46;;;;;;;11.50;6.63;;;;;;;;;;5108802;28;20052;-68
2023/08/25 08:32:12;;;;;;;14.40;6.28;;;;;;;;;;5108221;28;20066;-66
2023/08/25 08:34:39;;;;;;;13.70;6.40;;;;;;;;;;5109091;28;20483;-66
2023/08/25 08:37:06;;;;;;;11.35;5.85;;;;;;;;;;5107926;28;20052;-66
2023/08/25 08:39:38;;;;;;;10.57;5.93;;;;;;;;;;5109011;28;20098;-66
2023/08/25 08:42:09;;;;;;;10.57;6.30;;;;;;;;;;5106899;28;20097;-66
2023/08/25 08:44:36;;;;;;;8.77;5.85;;;;;;;;;;5108727;28;20492;-66
2023/08/25 08:47:03;;;;;;;8.15;5.40;;;;;;;;;;5108535;28;20043;-66
2023/08/25 08:49:30;;;;;;;10.52;5.40;;;;;;;;;;5111887;28;20059;-66
2023/08/25 08:51:58;;;;;;;8.32;5.32;;;;;;;;;;5112796;28;20039;-66
2023/08/25 08:54:25;;;;;;;11.40;6.15;;;;;;;;;;5112696;27;20147;-66
2023/08/25 08:56:52;;;;;;;7.13;4.88;;;;;;;;;;5112667;28;20067;-66
2023/08/25 08:59:19;;;;;;;6.50;5.28;;;;;;;;;;5112390;28;20082;-67
2023/08/25 09:01:47;;;;;;;8.35;5.35;;;;;;;;;;5112853;28;20047;-66
2023/08/25 09:04:15;;;;;;;8.10;5.38;;;;;;;;;;5112682;28;20507;-66
2023/08/25 09:06:43;;;;;;;7.65;4.47;;;;;;;;;;5112548;28;20108;-66
2023/08/25 09:09:10;;;;;;;5.63;4.88;;;;;;;;;;5112428;28;20139;-66
2023/08/25 09:11:36;;;;;;;10.27;4.57;;;;;;;;;;5112325;28;20480;-66
2023/08/25 09:14:07;;;;;;;6.32;4.05;;;;;;;;;;5112071;28;20113;-66
2023/08/25 09:16:35;;;;;;;11.00;4.38;;;;;;;;;;5112447;28;20112;-67
2023/08/25 09:19:02;;;;;;;6.45;4.00;;;;;;;;;;5112800;28;20518;-66
2023/08/25 09:21:29;;;;;;;9.70;5.43;;;;;;;;;;5112310;28;20051;-66
2023/08/25 09:23:56;;;;;;;5.65;3.53;;;;;;;;;;5112658;28;20467;-66
2023/08/25 09:26:23;;;;;;;7.97;4.28;;;;;;;;;;5112074;28;20555;-65
2023/08/25 09:28:53;;;;;;;7.40;4.65;;;;;;;;;;5112468;28;20154;-66
2023/08/25 09:31:19;;;;;;;;;;;;;;;;;;5111833;28;20084;-66
2023/08/25 09:33:46;;;;;;;5.97;4.10;;;;;;;;;;5112519;28;19969;-66
2023/08/25 09:36:12;;;;;;;9.90;4.47;;;;;;;;;;5111553;28;20468;-66
2023/08/25 09:38:42;;;;;;;6.85;3.85;;;;;;;;;;5112331;27;20134;-66
2023/08/25 09:41:28;;;;;;;7.68;3.70;;;;;;;;;;5111830;28;20048;-67
2023/08/25 09:43:58;;;;;;;7.95;4.28;;;;;;;;;;5111849;28;20396;-66
2023/08/25 09:46:28;;;;;;;10.73;3.93;;;;;;;;;;5111638;27;20548;-66
2023/08/25 09:49:01;;;;;;;7.85;3.00;;;;;;;;;;5111659;28;20403;-66
2023/08/25 09:51:35;;;;;;;9.73;3.30;;;;;;;;;;5111803;28;20146;-67
2023/08/25 09:54:06;;;;;;;7.40;3.25;;;;;;;;;;5110402;28;20171;-66
2023/08/25 09:56:33;;;;;;;5.57;3.75;;;;;;;;;;5109674;28;20048;-68
2023/08/25 09:59:02;;;;;;;4.97;2.67;;;;;;;;;;5111114;28;20487;-68
2023/08/25 10:01:28;;;;;;;4.95;2.38;;;;;;;;;;5111033;28;20475;-68
2023/08/25 10:03:57;;;;;;;4.93;3.20;;;;;;;;;;5109836;28;20073;-68
2023/08/25 10:06:23;;;;;;;8.95;2.45;;;;;;;;;;5111271;28;20055;-67
2023/08/25 10:08:50;;;;;;;6.20;2.38;;;;;;;;;;5111046;28;20054;-68
2023/08/25 10:11:19;;;;;;;8.65;2.60;;;;;;;;;;5111256;28;20507;-68
2023/08/25 10:13:47;;;;;;;9.57;5.47;;;;;;;;;;5111071;28;20104;-68
2023/08/25 10:16:14;;;;;;;3.97;2.97;;;;;;;;;;5110930;28;20112;-67
2023/08/25 10:18:43;;;;;;;7.70;2.67;;;;;;;;;;5110381;28;20047;-67
2023/08/25 10:21:10;;;;;;;6.65;2.78;;;;;;;;;;5109733;28;20510;-68
2023/08/25 10:23:37;;;;;;;5.80;2.55;;;;;;;;;;5111100;28;20051;-66
2023/08/25 10:26:05;;;;;;;5.35;2.85;;;;;;;;;;5110470;28;20436;-67
2023/08/25 10:28:32;;;;;;;6.10;2.72;;;;;;;;;;5110801;28;20096;-67
2023/08/25 10:30:59;;;;;;;5.40;2.85;;;;;;;;;;5110849;28;20100;-67
2023/08/25 10:33:25;;;;;;;7.68;2.78;;;;;;;;;;5111305;28;20155;-67
2023/08/25 10:35:53;;;;;;;6.90;2.47;;;;;;;;;;5110767;28;20062;-67
2023/08/25 10:38:19;;;;;;;3.90;2.70;;;;;;;;;;5107976;28;20052;-67
2023/08/25 10:40:50;;;;;;;6.30;2.50;;;;;;;;;;5111077;28;20044;-67
2023/08/25 10:43:27;;;;;;;12.65;2.55;;;;;;;;;;5110636;28;20047;-67
2023/08/25 10:45:56;;;;;;;10.77;3.20;;;;;;;;;;5110882;28;20313;-67
2023/08/25 10:48:25;;;;;;;6.55;3.17;;;;;;;;;;5110075;28;20419;-67
2023/08/25 10:51:08;;;;;;;5.60;2.40;;;;;;;;;;5111320;28;20090;-67
2023/08/25 10:53:44;;;;;;;6.40;2.47;;;;;;;;;;5110580;28;20036;-66
2023/08/25 10:56:15;;;;;;;10.18;3.22;;;;;;;;;;5110360;27;20461;-67
2023/08/25 10:58:41;;;;;;;5.43;2.70;;;;;;;;;;5109844;28;20144;-67
2023/08/25 11:01:08;;;;;;;6.38;3.92;;;;;;;;;;5109299;28;20444;-68
2023/08/25 11:03:48;;;;;;;5.13;2.80;;;;;;;;;;5110709;27;20044;-67
2023/08/25 11:06:33;;;;;;;6.97;2.85;;;;;;;;;;5110066;28;20105;-67
2023/08/25 11:08:59;;;;;;;6.90;3.08;;;;;;;;;;5110631;28;20144;-67
2023/08/25 11:11:27;;;;;;;7.95;2.90;;;;;;;;;;5108615;28;20506;-67
2023/08/25 11:13:56;;;;;;;3.47;2.28;;;;;;;;;;5110207;28;20134;-67
2023/08/25 11:16:22;;;;;;;5.25;1.90;;;;;;;;;;5109798;28;20062;-67
2023/08/25 11:18:49;;;;;;;4.57;2.45;;;;;;;;;;5110007;28;20043;-67
2023/08/25 11:21:15;;;;;;;5.32;2.50;;;;;;;;;;5108401;28;20052;-67
2023/08/25 11:23:43;;;;;;;6.13;2.30;;;;;;;;;;5089662;28;20047;-67
2023/08/25 11:26:14;;;;;;;8.27;2.10;;;;;;;;;;5099305;28;20054;-68
2023/08/25 11:28:40;;;;;;;5.30;2.30;;;;;;;;;;5110109;28;20048;-67
2023/08/25 11:31:07;;;;;;;4.82;1.90;;;;;;;;;;5109494;28;20139;-67
2023/08/25 11:33:34;;;;;;;9.18;2.42;;;;;;;;;;5109886;28;20048;-67
2023/08/25 11:36:02;;;;;;;6.82;2.40;;;;;;;;;;5109824;28;20044;-67
2023/08/25 11:38:29;;;;;;;11.27;2.83;;;;;;;;;;5109619;28;20048;-67
2023/08/25 11:40:56;;;;;;;3.63;2.53;;;;;;;;;;5109796;28;20471;-67
2023/08/25 11:43:32;;;;;;;5.75;2.45;;;;;;;;;;5109359;28;20514;-67
2023/08/25 11:45:59;;;;;;;3.10;2.13;;;;;;;;;;5110364;28;20043;-67
2023/08/25 11:48:25;;;;;;;3.28;2.28;;;;;;;;;;5109153;28;20079;-67
2023/08/25 11:50:52;;;;;;;3.72;1.80;;;;;;;;;;5109942;28;20584;-68
2023/08/25 11:53:18;;;;;;;4.50;1.90;;;;;;;;;;5109446;28;20052;-67
2023/08/25 11:56:04;;;;;;;4.13;2.00;;;;;;;;;;5110142;28;20126;-67
2023/08/25 11:58:34;;;;;;;5.22;1.75;;;;;;;;;;5109677;28;20092;-67
2023/08/25 12:01:03;;;;;;;4.25;2.00;;;;;;;;;;5108182;28;20046;-66
2023/08/25 12:03:30;;;;;;;5.80;2.13;;;;;;;;;;5109353;28;20170;-67
2023/08/25 12:05:57;;;;;;;4.28;2.00;;;;;;;;;;5109417;28;20043;-67
2023/08/25 12:08:24;;;;;;;4.30;2.17;;;;;;;;;;5108865;28;20135;-67
2023/08/25 12:10:54;;;;;;;5.47;2.47;;;;;;;;;;5108666;28;20043;-68
2023/08/25 12:13:24;;;;;;;4.38;2.50;;;;;;;;;;5108291;28;20109;-66
2023/08/25 12:15:52;;;;;;;4.35;3.22;;;;;;;;;;5109236;28;20104;-68
2023/08/25 12:18:18;;;;;;;7.13;3.42;;;;;;;;;;5108351;28;20055;-66
2023/08/25 12:20:45;;;;;;;8.20;3.38;;;;;;;;;;5109546;28;20043;-66
2023/08/25 12:23:13;;;;;;;6.20;3.20;;;;;;;;;;5108534;28;20050;-66
2023/08/25 12:25:43;;;;;;;7.60;3.00;;;;;;;;;;5109640;28;20475;-65
2023/08/25 12:28:10;;;;;;;10.85;3.53;;;;;;;;;;5108828;28;20136;-66
2023/08/25 12:30:37;;;;;;;10.13;3.47;;;;;;;;;;5109138;28;20079;-65
2023/08/25 12:33:05;;;;;;;6.65;2.85;;;;;;;;;;5107841;28;20131;-66
2023/08/25 12:35:33;;;;;;;6.55;3.22;;;;;;;;;;5108379;28;20043;-66
2023/08/25 12:38:00;;;;;;;7.18;3.15;;;;;;;;;;5108615;28;20136;-66
2023/08/25 12:40:26;;;;;;;3.72;3.25;;;;;;;;;;5108582;28;20480;-66
2023/08/25 12:42:55;;;;;;;8.75;3.15;;;;;;;;;;5108598;28;20123;-65
2023/08/25 12:45:22;;;;;;;9.60;3.08;;;;;;;;;;5109228;28;20051;-66
2023/08/25 12:47:48;;;;;;;14.35;4.15;;;;;;;;;;5108695;28;20130;-67
2023/08/25 12:50:15;;;;;;;5.78;3.00;;;;;;;;;;5109157;28;20551;-68
2023/08/25 12:52:41;;;;;;;6.38;2.97;;;;;;;;;;5108532;28;20092;-67
2023/08/25 12:55:10;;;;;;;9.60;3.72;;;;;;;;;;5109062;28;20100;-68
2023/08/25 12:57:49;;;;;;;9.48;4.10;;;;;;;;;;5107195;28;20046;-67
2023/08/25 13:00:16;;;;;;;6.68;3.63;;;;;;;;;;5088801;28;20051;-68
2023/08/25 13:02:42;;;;;;;17.25;4.05;;;;;;;;;;5102072;28;20047;-67
2023/08/25 13:05:09;;;;;;;17.45;4.95;;;;;;;;;;5108730;28;20160;-70
2023/08/25 13:07:37;;;;;;;8.70;4.93;;;;;;;;;;5108471;28;20134;-68
2023/08/25 13:10:07;;;;;;;8.00;5.00;;;;;;;;;;5108705;28;20048;-67
2023/08/25 13:12:34;;;;;;;8.00;5.28;;;;;;;;;;5106698;28;20174;-68
2023/08/25 13:15:02;;;;;;;7.85;5.03;;;;;;;;;;5108329;28;20571;-68
2023/08/25 13:17:29;;;;;;;8.50;5.53;;;;;;;;;;5108263;28;20043;-68
2023/08/25 13:19:55;;;;;;;12.63;4.78;;;;;;;;;;5108468;28;20230;-69
2023/08/25 13:22:22;;;;;;;11.00;5.90;;;;;;;;;;5107733;28;20134;-69
2023/08/25 13:24:48;;;;;;;11.15;5.78;;;;;;;;;;5108537;28;20649;-68
2023/08/25 13:27:18;;;;;;;9.60;5.32;;;;;;;;;;5102881;28;20086;-68
2023/08/25 13:29:44;;;;;;;17.35;6.53;;;;;;;;;;5108478;28;20058;-71
2023/08/25 13:32:10;;;;;;;8.68;6.07;;;;;;;;;;5106830;28;20090;-68
2023/08/25 13:34:37;;;;;;;10.00;5.97;;;;;;;;;;5108572;28;20130;-68
2023/08/25 13:37:04;;;;;;;11.65;6.50;;;;;;;;;;5111651;28;20105;-69
2023/08/25 13:39:33;;;;;;;10.05;6.55;;;;;;;;;;5112054;28;20492;-70
2023/08/25 13:42:00;;;;;;;7.95;6.30;;;;;;;;;;5111551;28;20040;-70
2023/08/25 13:44:26;;;;;;;11.48;6.00;;;;;;;;;;5112210;28;20135;-69
2023/08/25 13:46:58;;;;;;;9.95;6.40;;;;;;;;;;5110967;28;20568;-69
2023/08/25 13:49:25;;;;;;;10.65;5.95;;;;;;;;;;5112246;28;20128;-72
2023/08/25 13:51:51;;;;;;;8.00;5.75;;;;;;;;;;5111282;28;20090;-69
2023/08/25 13:54:18;;;;;;;9.43;6.38;;;;;;;;;;5111715;28;20047;-69
2023/08/25 13:56:45;;;;;;;11.07;6.05;;;;;;;;;;5111290;28;20445;-70
2023/08/25 13:59:12;;;;;;;13.05;5.90;;;;;;;;;;5098080;28;20135;-67
2023/08/25 14:01:38;;;;;;;7.70;5.05;;;;;;;;;;5098182;28;20702;-68
2023/08/25 14:04:04;;;;;;;13.77;6.00;;;;;;;;;;5111934;28;20047;-67
2023/08/25 14:06:31;;;;;;;9.80;4.38;;;;;;;;;;5110289;28;20126;-67
2023/08/25 14:08:57;;;;;;;7.47;4.60;;;;;;;;;;5111433;28;20545;-66
2023/08/25 14:11:24;;;;;;;7.90;5.30;;;;;;;;;;5111220;28;20121;-67
2023/08/25 14:13:50;;;;;;;10.23;5.05;;;;;;;;;;5110419;28;20093;-66
2023/08/25 14:16:17;;;;;;;6.30;4.47;;;;;;;;;;5109994;28;20039;-66
2023/08/25 14:18:43;;;;;;;9.35;4.15;;;;;;;;;;5111024;28;20047;-67
2023/08/25 14:21:09;;;;;;;8.20;4.50;;;;;;;;;;5110440;28;20476;-66
2023/08/25 14:23:38;;;;;;;5.93;4.07;;;;;;;;;;5111125;28;20154;-66
2023/08/25 14:26:05;;;;;;;6.75;4.40;;;;;;;;;;5110241;28;20506;-67
2023/08/25 14:28:32;;;;;;;6.80;4.40;;;;;;;;;;5096186;28;20588;-67
2023/08/25 14:30:58;;;;;;;9.45;4.78;;;;;;;;;;5110757;28;20100;-67
2023/08/25 14:33:25;;;;;;;6.55;4.35;;;;;;;;;;5110602;28;20108;-67
2023/08/25 14:35:54;;;;;;;12.85;5.28;;;;;;;;;;5111019;27;20100;-67
2023/08/25 14:38:20;;;;;;;12.25;5.07;;;;;;;;;;5110573;28;20122;-67
2023/08/25 14:40:47;;;;;;;7.40;4.57;;;;;;;;;;5110648;28;20083;-66